sensor_id;sensor_type;location;lat;lon;timestamp;temperature;humidity
51661;DHT22;37741;49.748;8.490;2023-06-22T00:00:43;29.40;55.00
51661;DHT22;37741;49.748;8.490;2023-06-22T00:03:09;29.40;55.10
51661;DHT22;37741;49.748;8.490;2023-06-22T00:05:34;29.40;55.10
51661;DHT22;37741;49.748;8.490;2023-06-22T00:08:03;29.30;55.00
51661;DHT22;37741;49.748;8.490;2023-06-22T00:10:30;29.30;55.10
51661;DHT22;37741;49.748;8.490;2023-06-22T00:12:56;29.30;55.00
51661;DHT22;37741;49.748;8.490;2023-06-22T00:15:21;29.30;55.10
51661;DHT22;37741;49.748;8.490;2023-06-22T00:17:47;29.20;55.20
51661;DHT22;37741;49.748;8.490;2023-06-22T00:20:12;29.20;55.20
51661;DHT22;37741;49.748;8.490;2023-06-22T00:22:40;29.20;55.40
51661;DHT22;37741;49.748;8.490;2023-06-22T00:25:08;29.20;55.40
51661;DHT22;37741;49.748;8.490;2023-06-22T00:27:35;29.20;55.40
51661;DHT22;37741;49.748;8.490;2023-06-22T00:30:00;29.10;55.40
51661;DHT22;37741;49.748;8.490;2023-06-22T00:32:26;29.10;55.50
51661;DHT22;37741;49.748;8.490;2023-06-22T00:34:51;29.10;55.50
51661;DHT22;37741;49.748;8.490;2023-06-22T00:37:17;29.10;55.50
51661;DHT22;37741;49.748;8.490;2023-06-22T00:39:43;29.00;55.40
51661;DHT22;37741;49.748;8.490;2023-06-22T00:42:09;29.00;55.60
51661;DHT22;37741;49.748;8.490;2023-06-22T00:44:35;29.00;55.60
51661;DHT22;37741;49.748;8.490;2023-06-22T00:47:02;29.00;55.70
51661;DHT22;37741;49.748;8.490;2023-06-22T00:49:28;28.90;55.60
51661;DHT22;37741;49.748;8.490;2023-06-22T00:51:54;29.00;55.80
51661;DHT22;37741;49.748;8.490;2023-06-22T00:54:21;28.90;55.90
51661;DHT22;37741;49.748;8.490;2023-06-22T00:56:53;28.90;55.90
51661;DHT22;37741;49.748;8.490;2023-06-22T00:59:21;28.90;56.10
51661;DHT22;37741;49.748;8.490;2023-06-22T01:01:46;28.80;56.10
51661;DHT22;37741;49.748;8.490;2023-06-22T01:04:12;28.80;56.30
51661;DHT22;37741;49.748;8.490;2023-06-22T01:06:46;28.80;56.40
51661;DHT22;37741;49.748;8.490;2023-06-22T01:09:15;28.70;56.60
51661;DHT22;37741;49.748;8.490;2023-06-22T01:11:53;28.70;56.70
51661;DHT22;37741;49.748;8.490;2023-06-22T01:14:28;28.60;56.90
51661;DHT22;37741;49.748;8.490;2023-06-22T01:17:00;28.50;57.40
51661;DHT22;37741;49.748;8.490;2023-06-22T01:19:50;28.40;57.80
51661;DHT22;37741;49.748;8.490;2023-06-22T01:22:23;28.40;58.20
51661;DHT22;37741;49.748;8.490;2023-06-22T01:24:57;28.30;58.50
51661;DHT22;37741;49.748;8.490;2023-06-22T01:30:11;28.20;58.90
51661;DHT22;37741;49.748;8.490;2023-06-22T01:32:40;28.20;58.90
51661;DHT22;37741;49.748;8.490;2023-06-22T01:35:08;28.20;59.10
51661;DHT22;37741;49.748;8.490;2023-06-22T01:37:35;28.10;59.10
51661;DHT22;37741;49.748;8.490;2023-06-22T01:40:02;28.10;59.10
51661;DHT22;37741;49.748;8.490;2023-06-22T01:42:31;28.00;59.20
51661;DHT22;37741;49.748;8.490;2023-06-22T01:44:57;28.00;59.20
51661;DHT22;37741;49.748;8.490;2023-06-22T01:47:24;28.00;59.30
51661;DHT22;37741;49.748;8.490;2023-06-22T01:49:51;27.90;59.30
51661;DHT22;37741;49.748;8.490;2023-06-22T01:52:17;27.90;59.50
51661;DHT22;37741;49.748;8.490;2023-06-22T01:54:43;27.80;59.60
51661;DHT22;37741;49.748;8.490;2023-06-22T01:57:09;27.70;59.70
51661;DHT22;37741;49.748;8.490;2023-06-22T01:59:44;27.70;59.80
51661;DHT22;37741;49.748;8.490;2023-06-22T02:02:15;27.70;60.00
51661;DHT22;37741;49.748;8.490;2023-06-22T02:04:51;27.60;60.30
51661;DHT22;37741;49.748;8.490;2023-06-22T02:07:23;27.50;60.30
51661;DHT22;37741;49.748;8.490;2023-06-22T02:09:52;27.40;60.40
51661;DHT22;37741;49.748;8.490;2023-06-22T02:12:23;27.40;60.50
51661;DHT22;37741;49.748;8.490;2023-06-22T02:14:51;27.30;60.50
51661;DHT22;37741;49.748;8.490;2023-06-22T02:17:17;27.30;60.70
51661;DHT22;37741;49.748;8.490;2023-06-22T02:19:43;27.30;60.80
51661;DHT22;37741;49.748;8.490;2023-06-22T02:22:09;27.20;60.90
51661;DHT22;37741;49.748;8.490;2023-06-22T02:24:35;27.20;61.10
51661;DHT22;37741;49.748;8.490;2023-06-22T02:27:01;27.20;61.30
51661;DHT22;37741;49.748;8.490;2023-06-22T02:29:28;27.10;61.30
51661;DHT22;37741;49.748;8.490;2023-06-22T02:31:54;27.10;61.40
51661;DHT22;37741;49.748;8.490;2023-06-22T02:34:20;27.10;61.50
51661;DHT22;37741;49.748;8.490;2023-06-22T02:36:47;27.00;61.60
51661;DHT22;37741;49.748;8.490;2023-06-22T02:39:24;27.00;61.60
51661;DHT22;37741;49.748;8.490;2023-06-22T02:41:51;26.90;61.60
51661;DHT22;37741;49.748;8.490;2023-06-22T02:44:17;26.90;61.90
51661;DHT22;37741;49.748;8.490;2023-06-22T02:46:43;26.90;61.90
51661;DHT22;37741;49.748;8.490;2023-06-22T02:49:09;26.90;62.10
51661;DHT22;37741;49.748;8.490;2023-06-22T02:51:37;26.80;62.10
51661;DHT22;37741;49.748;8.490;2023-06-22T02:54:07;26.80;62.20
51661;DHT22;37741;49.748;8.490;2023-06-22T02:56:32;26.70;62.20
51661;DHT22;37741;49.748;8.490;2023-06-22T02:58:58;26.80;62.50
51661;DHT22;37741;49.748;8.490;2023-06-22T03:01:27;26.70;62.70
51661;DHT22;37741;49.748;8.490;2023-06-22T03:03:53;26.70;62.70
51661;DHT22;37741;49.748;8.490;2023-06-22T03:06:20;26.70;62.70
51661;DHT22;37741;49.748;8.490;2023-06-22T03:08:50;26.60;62.80
51661;DHT22;37741;49.748;8.490;2023-06-22T03:11:16;26.60;62.90
51661;DHT22;37741;49.748;8.490;2023-06-22T03:13:42;26.60;63.10
51661;DHT22;37741;49.748;8.490;2023-06-22T03:16:07;26.50;63.10
51661;DHT22;37741;49.748;8.490;2023-06-22T03:18:33;26.50;63.20
51661;DHT22;37741;49.748;8.490;2023-06-22T03:20:58;26.50;63.30
51661;DHT22;37741;49.748;8.490;2023-06-22T03:23:24;26.40;63.40
51661;DHT22;37741;49.748;8.490;2023-06-22T03:25:50;26.40;63.40
51661;DHT22;37741;49.748;8.490;2023-06-22T03:28:15;26.40;63.50
51661;DHT22;37741;49.748;8.490;2023-06-22T03:30:41;26.40;63.40
51661;DHT22;37741;49.748;8.490;2023-06-22T03:33:07;26.40;63.50
51661;DHT22;37741;49.748;8.490;2023-06-22T03:35:32;26.40;63.40
51661;DHT22;37741;49.748;8.490;2023-06-22T03:37:58;26.40;63.50
51661;DHT22;37741;49.748;8.490;2023-06-22T03:40:23;26.40;63.50
51661;DHT22;37741;49.748;8.490;2023-06-22T03:42:49;26.30;63.50
51661;DHT22;37741;49.748;8.490;2023-06-22T03:45:15;26.40;63.60
51661;DHT22;37741;49.748;8.490;2023-06-22T03:47:41;26.30;63.50
51661;DHT22;37741;49.748;8.490;2023-06-22T03:50:07;26.30;63.50
51661;DHT22;37741;49.748;8.490;2023-06-22T03:52:33;26.30;63.60
51661;DHT22;37741;49.748;8.490;2023-06-22T03:54:58;26.30;63.70
51661;DHT22;37741;49.748;8.490;2023-06-22T03:57:24;26.30;63.70
51661;DHT22;37741;49.748;8.490;2023-06-22T03:59:50;26.20;63.70
51661;DHT22;37741;49.748;8.490;2023-06-22T04:02:15;26.20;63.70
51661;DHT22;37741;49.748;8.490;2023-06-22T04:04:41;26.10;63.80
51661;DHT22;37741;49.748;8.490;2023-06-22T04:07:06;26.10;63.90
51661;DHT22;37741;49.748;8.490;2023-06-22T04:09:33;26.10;64.00
51661;DHT22;37741;49.748;8.490;2023-06-22T04:11:58;26.10;64.10
51661;DHT22;37741;49.748;8.490;2023-06-22T04:14:24;26.10;64.30
51661;DHT22;37741;49.748;8.490;2023-06-22T04:16:49;26.00;64.20
51661;DHT22;37741;49.748;8.490;2023-06-22T04:19:15;26.00;64.40
51661;DHT22;37741;49.748;8.490;2023-06-22T04:21:43;26.00;64.50
51661;DHT22;37741;49.748;8.490;2023-06-22T04:24:10;25.90;64.50
51661;DHT22;37741;49.748;8.490;2023-06-22T04:26:36;25.90;64.70
51661;DHT22;37741;49.748;8.490;2023-06-22T04:29:05;25.90;64.70
51661;DHT22;37741;49.748;8.490;2023-06-22T04:31:32;25.90;64.90
51661;DHT22;37741;49.748;8.490;2023-06-22T04:34:00;25.90;65.00
51661;DHT22;37741;49.748;8.490;2023-06-22T04:36:38;25.80;65.10
51661;DHT22;37741;49.748;8.490;2023-06-22T04:39:10;25.80;65.20
51661;DHT22;37741;49.748;8.490;2023-06-22T04:41:39;25.80;65.20
51661;DHT22;37741;49.748;8.490;2023-06-22T04:44:11;25.70;65.20
51661;DHT22;37741;49.748;8.490;2023-06-22T04:46:37;25.60;65.30
51661;DHT22;37741;49.748;8.490;2023-06-22T04:49:10;25.60;65.30
51661;DHT22;37741;49.748;8.490;2023-06-22T04:51:38;25.60;65.50
51661;DHT22;37741;49.748;8.490;2023-06-22T04:54:04;25.60;65.50
51661;DHT22;37741;49.748;8.490;2023-06-22T04:56:31;25.50;65.60
51661;DHT22;37741;49.748;8.490;2023-06-22T04:58:57;25.50;65.80
51661;DHT22;37741;49.748;8.490;2023-06-22T05:01:23;25.40;65.90
51661;DHT22;37741;49.748;8.490;2023-06-22T05:03:49;25.40;66.00
51661;DHT22;37741;49.748;8.490;2023-06-22T05:06:15;25.40;66.00
51661;DHT22;37741;49.748;8.490;2023-06-22T05:08:41;25.30;66.10
51661;DHT22;37741;49.748;8.490;2023-06-22T05:11:09;25.30;66.20
51661;DHT22;37741;49.748;8.490;2023-06-22T05:13:35;25.30;66.40
51661;DHT22;37741;49.748;8.490;2023-06-22T05:16:00;25.20;66.30
51661;DHT22;37741;49.748;8.490;2023-06-22T05:18:30;25.20;66.40
51661;DHT22;37741;49.748;8.490;2023-06-22T05:20:57;25.20;66.50
51661;DHT22;37741;49.748;8.490;2023-06-22T05:23:25;25.20;66.80
51661;DHT22;37741;49.748;8.490;2023-06-22T05:25:51;25.10;66.90
51661;DHT22;37741;49.748;8.490;2023-06-22T05:28:17;25.10;67.00
51661;DHT22;37741;49.748;8.490;2023-06-22T05:30:48;25.10;67.20
51661;DHT22;37741;49.748;8.490;2023-06-22T05:33:14;25.00;67.20
51661;DHT22;37741;49.748;8.490;2023-06-22T05:35:39;25.00;67.30
51661;DHT22;37741;49.748;8.490;2023-06-22T05:38:07;25.00;67.60
51661;DHT22;37741;49.748;8.490;2023-06-22T05:40:33;25.00;67.60
51661;DHT22;37741;49.748;8.490;2023-06-22T05:42:59;25.00;67.60
51661;DHT22;37741;49.748;8.490;2023-06-22T05:45:27;25.00;68.00
51661;DHT22;37741;49.748;8.490;2023-06-22T05:47:52;25.00;68.00
51661;DHT22;37741;49.748;8.490;2023-06-22T05:50:20;25.00;68.40
51661;DHT22;37741;49.748;8.490;2023-06-22T05:52:46;25.00;68.40
51661;DHT22;37741;49.748;8.490;2023-06-22T05:55:14;25.10;68.50
51661;DHT22;37741;49.748;8.490;2023-06-22T05:57:40;25.10;68.50
51661;DHT22;37741;49.748;8.490;2023-06-22T06:00:06;25.20;68.40
51661;DHT22;37741;49.748;8.490;2023-06-22T06:02:36;25.20;68.50
51661;DHT22;37741;49.748;8.490;2023-06-22T06:05:01;25.30;68.30
51661;DHT22;37741;49.748;8.490;2023-06-22T06:07:28;25.30;68.30
51661;DHT22;37741;49.748;8.490;2023-06-22T06:09:53;25.30;68.10
51661;DHT22;37741;49.748;8.490;2023-06-22T06:12:19;25.30;68.00
51661;DHT22;37741;49.748;8.490;2023-06-22T06:14:44;25.40;68.20
51661;DHT22;37741;49.748;8.490;2023-06-22T06:17:10;25.40;68.10
51661;DHT22;37741;49.748;8.490;2023-06-22T06:19:35;25.40;68.10
51661;DHT22;37741;49.748;8.490;2023-06-22T06:22:01;25.50;68.10
51661;DHT22;37741;49.748;8.490;2023-06-22T06:24:27;25.50;68.00
51661;DHT22;37741;49.748;8.490;2023-06-22T06:26:52;25.50;68.00
51661;DHT22;37741;49.748;8.490;2023-06-22T06:29:18;25.60;68.00
51661;DHT22;37741;49.748;8.490;2023-06-22T06:31:44;25.60;67.90
51661;DHT22;37741;49.748;8.490;2023-06-22T06:34:09;25.70;67.80
51661;DHT22;37741;49.748;8.490;2023-06-22T06:36:35;25.80;67.80
51661;DHT22;37741;49.748;8.490;2023-06-22T06:39:01;25.80;67.90
51661;DHT22;37741;49.748;8.490;2023-06-22T06:41:28;25.80;67.50
51661;DHT22;37741;49.748;8.490;2023-06-22T06:43:54;25.90;67.50
51661;DHT22;37741;49.748;8.490;2023-06-22T06:46:19;25.90;67.30
51661;DHT22;37741;49.748;8.490;2023-06-22T06:48:45;25.90;67.20
51661;DHT22;37741;49.748;8.490;2023-06-22T06:51:10;26.00;67.10
51661;DHT22;37741;49.748;8.490;2023-06-22T06:53:38;26.00;66.90
51661;DHT22;37741;49.748;8.490;2023-06-22T06:56:03;26.00;66.90
51661;DHT22;37741;49.748;8.490;2023-06-22T06:58:31;26.00;66.90
51661;DHT22;37741;49.748;8.490;2023-06-22T07:00:56;26.00;66.90
51661;DHT22;37741;49.748;8.490;2023-06-22T07:03:22;26.00;66.80
51661;DHT22;37741;49.748;8.490;2023-06-22T07:05:48;26.00;66.70
51661;DHT22;37741;49.748;8.490;2023-06-22T07:08:13;26.10;66.70
51661;DHT22;37741;49.748;8.490;2023-06-22T07:10:39;26.00;66.60
51661;DHT22;37741;49.748;8.490;2023-06-22T07:13:04;26.00;66.60
51661;DHT22;37741;49.748;8.490;2023-06-22T07:15:30;26.00;66.50
51661;DHT22;37741;49.748;8.490;2023-06-22T07:17:55;26.10;66.50
51661;DHT22;37741;49.748;8.490;2023-06-22T07:20:21;26.10;66.60
51661;DHT22;37741;49.748;8.490;2023-06-22T07:22:47;26.10;66.40
51661;DHT22;37741;49.748;8.490;2023-06-22T07:25:13;26.10;66.40
51661;DHT22;37741;49.748;8.490;2023-06-22T07:27:56;26.10;66.50
51661;DHT22;37741;49.748;8.490;2023-06-22T07:30:22;26.00;66.40
51661;DHT22;37741;49.748;8.490;2023-06-22T07:32:47;26.10;66.50
51661;DHT22;37741;49.748;8.490;2023-06-22T07:35:13;26.00;66.50
51661;DHT22;37741;49.748;8.490;2023-06-22T07:37:38;26.10;67.20
51661;DHT22;37741;49.748;8.490;2023-06-22T07:40:05;26.10;66.50
51661;DHT22;37741;49.748;8.490;2023-06-22T07:42:32;26.10;66.50
51661;DHT22;37741;49.748;8.490;2023-06-22T07:45:02;26.10;66.50
51661;DHT22;37741;49.748;8.490;2023-06-22T07:47:28;26.10;66.50
51661;DHT22;37741;49.748;8.490;2023-06-22T07:49:54;26.10;66.60
51661;DHT22;37741;49.748;8.490;2023-06-22T07:52:22;26.00;66.60
51661;DHT22;37741;49.748;8.490;2023-06-22T07:54:48;26.00;66.70
51661;DHT22;37741;49.748;8.490;2023-06-22T07:57:13;26.00;66.80
51661;DHT22;37741;49.748;8.490;2023-06-22T07:59:39;26.00;66.90
51661;DHT22;37741;49.748;8.490;2023-06-22T08:02:05;26.00;66.90
51661;DHT22;37741;49.748;8.490;2023-06-22T08:04:30;25.90;66.80
51661;DHT22;37741;49.748;8.490;2023-06-22T08:06:59;26.00;66.90
51661;DHT22;37741;49.748;8.490;2023-06-22T08:09:25;26.00;67.10
51661;DHT22;37741;49.748;8.490;2023-06-22T08:11:50;25.90;67.00
51661;DHT22;37741;49.748;8.490;2023-06-22T08:14:16;25.90;67.10
51661;DHT22;37741;49.748;8.490;2023-06-22T08:16:42;25.90;67.10
51661;DHT22;37741;49.748;8.490;2023-06-22T08:19:07;25.90;67.10
51661;DHT22;37741;49.748;8.490;2023-06-22T08:21:33;25.90;67.10
51661;DHT22;37741;49.748;8.490;2023-06-22T08:23:59;25.90;67.10
51661;DHT22;37741;49.748;8.490;2023-06-22T08:26:24;25.90;67.20
51661;DHT22;37741;49.748;8.490;2023-06-22T08:28:50;25.90;67.20
51661;DHT22;37741;49.748;8.490;2023-06-22T08:31:15;25.90;67.30
51661;DHT22;37741;49.748;8.490;2023-06-22T08:33:41;25.90;67.30
51661;DHT22;37741;49.748;8.490;2023-06-22T08:36:08;25.90;67.30
51661;DHT22;37741;49.748;8.490;2023-06-22T08:38:36;26.00;67.40
51661;DHT22;37741;49.748;8.490;2023-06-22T08:41:01;26.00;68.00
51661;DHT22;37741;49.748;8.490;2023-06-22T08:43:28;26.00;67.20
51661;DHT22;37741;49.748;8.490;2023-06-22T08:45:53;26.00;67.90
51661;DHT22;37741;49.748;8.490;2023-06-22T08:48:19;26.00;67.50
51661;DHT22;37741;49.748;8.490;2023-06-22T08:50:44;26.10;67.40
51661;DHT22;37741;49.748;8.490;2023-06-22T08:53:10;26.10;67.50
51661;DHT22;37741;49.748;8.490;2023-06-22T08:55:36;26.10;67.40
51661;DHT22;37741;49.748;8.490;2023-06-22T08:58:01;26.10;67.90
51661;DHT22;37741;49.748;8.490;2023-06-22T09:00:28;26.10;67.10
51661;DHT22;37741;49.748;8.490;2023-06-22T09:02:54;26.20;67.00
51661;DHT22;37741;49.748;8.490;2023-06-22T09:05:26;26.20;67.00
51661;DHT22;37741;49.748;8.490;2023-06-22T09:07:52;26.20;67.00
51661;DHT22;37741;49.748;8.490;2023-06-22T09:10:22;26.20;67.00
51661;DHT22;37741;49.748;8.490;2023-06-22T09:12:48;26.30;67.00
51661;DHT22;37741;49.748;8.490;2023-06-22T09:15:14;26.30;67.40
51661;DHT22;37741;49.748;8.490;2023-06-22T09:17:41;26.30;66.80
51661;DHT22;37741;49.748;8.490;2023-06-22T09:20:07;26.30;67.10
51661;DHT22;37741;49.748;8.490;2023-06-22T09:22:35;26.40;66.80
51661;DHT22;37741;49.748;8.490;2023-06-22T09:25:01;26.40;66.90
51661;DHT22;37741;49.748;8.490;2023-06-22T09:27:28;26.50;66.50
51661;DHT22;37741;49.748;8.490;2023-06-22T09:29:54;26.60;66.20
51661;DHT22;37741;49.748;8.490;2023-06-22T09:32:20;26.70;65.90
51661;DHT22;37741;49.748;8.490;2023-06-22T09:34:45;26.70;65.60
51661;DHT22;37741;49.748;8.490;2023-06-22T09:37:12;26.80;65.50
51661;DHT22;37741;49.748;8.490;2023-06-22T09:39:37;26.90;65.20
51661;DHT22;37741;49.748;8.490;2023-06-22T09:42:03;27.00;65.00
51661;DHT22;37741;49.748;8.490;2023-06-22T09:44:30;27.00;64.70
51661;DHT22;37741;49.748;8.490;2023-06-22T09:46:56;27.10;65.40
51661;DHT22;37741;49.748;8.490;2023-06-22T09:49:22;27.10;65.30
51661;DHT22;37741;49.748;8.490;2023-06-22T09:51:48;27.20;64.70
51661;DHT22;37741;49.748;8.490;2023-06-22T09:54:15;27.30;64.40
51661;DHT22;37741;49.748;8.490;2023-06-22T09:56:40;27.30;64.40
51661;DHT22;37741;49.748;8.490;2023-06-22T09:59:06;27.40;64.10
51661;DHT22;37741;49.748;8.490;2023-06-22T10:01:31;27.40;63.90
51661;DHT22;37741;49.748;8.490;2023-06-22T10:03:57;27.40;63.80
51661;DHT22;37741;49.748;8.490;2023-06-22T10:06:23;27.50;63.70
51661;DHT22;37741;49.748;8.490;2023-06-22T10:08:51;27.50;63.70
51661;DHT22;37741;49.748;8.490;2023-06-22T10:11:16;27.50;64.20
51661;DHT22;37741;49.748;8.490;2023-06-22T10:13:42;27.60;63.50
51661;DHT22;37741;49.748;8.490;2023-06-22T10:16:08;27.60;63.20
51661;DHT22;37741;49.748;8.490;2023-06-22T10:18:34;27.60;63.10
51661;DHT22;37741;49.748;8.490;2023-06-22T10:20:59;27.70;63.20
51661;DHT22;37741;49.748;8.490;2023-06-22T10:23:25;27.70;62.90
51661;DHT22;37741;49.748;8.490;2023-06-22T10:25:51;27.70;62.80
51661;DHT22;37741;49.748;8.490;2023-06-22T10:28:16;27.70;62.70
51661;DHT22;37741;49.748;8.490;2023-06-22T10:30:42;27.80;62.80
51661;DHT22;37741;49.748;8.490;2023-06-22T10:33:09;27.80;63.00
51661;DHT22;37741;49.748;8.490;2023-06-22T10:35:35;27.80;62.70
51661;DHT22;37741;49.748;8.490;2023-06-22T10:38:03;27.90;62.40
51661;DHT22;37741;49.748;8.490;2023-06-22T10:40:29;27.90;62.20
51661;DHT22;37741;49.748;8.490;2023-06-22T10:42:55;28.00;62.20
51661;DHT22;37741;49.748;8.490;2023-06-22T10:45:20;28.00;62.00
51661;DHT22;37741;49.748;8.490;2023-06-22T10:47:46;28.00;61.80
51661;DHT22;37741;49.748;8.490;2023-06-22T10:50:13;28.00;61.60
51661;DHT22;37741;49.748;8.490;2023-06-22T10:52:39;28.00;61.50
51661;DHT22;37741;49.748;8.490;2023-06-22T10:55:05;28.00;61.50
51661;DHT22;37741;49.748;8.490;2023-06-22T10:57:31;28.00;61.40
51661;DHT22;37741;49.748;8.490;2023-06-22T10:59:56;28.10;61.40
51661;DHT22;37741;49.748;8.490;2023-06-22T11:02:23;28.10;61.40
51661;DHT22;37741;49.748;8.490;2023-06-22T11:04:49;28.10;61.40
51661;DHT22;37741;49.748;8.490;2023-06-22T11:07:15;28.10;61.30
51661;DHT22;37741;49.748;8.490;2023-06-22T11:09:43;28.10;61.60
51661;DHT22;37741;49.748;8.490;2023-06-22T11:12:08;28.10;62.30
51661;DHT22;37741;49.748;8.490;2023-06-22T11:14:34;28.20;61.80
51661;DHT22;37741;49.748;8.490;2023-06-22T11:17:00;28.20;61.70
51661;DHT22;37741;49.748;8.490;2023-06-22T11:19:25;28.20;61.60
51661;DHT22;37741;49.748;8.490;2023-06-22T11:21:51;28.30;61.70
51661;DHT22;37741;49.748;8.490;2023-06-22T11:24:17;28.30;61.80
51661;DHT22;37741;49.748;8.490;2023-06-22T11:26:42;28.30;61.50
51661;DHT22;37741;49.748;8.490;2023-06-22T11:29:08;28.40;61.50
51661;DHT22;37741;49.748;8.490;2023-06-22T11:31:34;28.40;61.30
51661;DHT22;37741;49.748;8.490;2023-06-22T11:34:00;28.40;61.10
51661;DHT22;37741;49.748;8.490;2023-06-22T11:36:26;28.50;61.10
51661;DHT22;37741;49.748;8.490;2023-06-22T11:38:52;28.50;61.10
51661;DHT22;37741;49.748;8.490;2023-06-22T11:41:18;28.50;60.90
51661;DHT22;37741;49.748;8.490;2023-06-22T11:43:45;28.60;61.10
51661;DHT22;37741;49.748;8.490;2023-06-22T11:46:10;28.70;60.90
51661;DHT22;37741;49.748;8.490;2023-06-22T11:48:36;28.70;60.80
51661;DHT22;37741;49.748;8.490;2023-06-22T11:51:02;28.70;60.80
51661;DHT22;37741;49.748;8.490;2023-06-22T11:53:41;28.80;60.60
51661;DHT22;37741;49.748;8.490;2023-06-22T11:56:06;28.80;60.40
51661;DHT22;37741;49.748;8.490;2023-06-22T11:58:35;28.90;61.00
51661;DHT22;37741;49.748;8.490;2023-06-22T12:01:00;28.90;60.20
51661;DHT22;37741;49.748;8.490;2023-06-22T12:03:26;29.00;60.00
51661;DHT22;37741;49.748;8.490;2023-06-22T12:05:51;29.00;60.00
51661;DHT22;37741;49.748;8.490;2023-06-22T12:08:17;29.00;59.60
51661;DHT22;37741;49.748;8.490;2023-06-22T12:10:44;29.10;59.60
51661;DHT22;37741;49.748;8.490;2023-06-22T12:13:14;29.20;59.30
51661;DHT22;37741;49.748;8.490;2023-06-22T12:15:43;29.20;58.50
51661;DHT22;37741;49.748;8.490;2023-06-22T12:18:09;29.30;58.50
51661;DHT22;37741;49.748;8.490;2023-06-22T12:20:34;29.40;58.80
51661;DHT22;37741;49.748;8.490;2023-06-22T12:23:03;29.50;58.70
51661;DHT22;37741;49.748;8.490;2023-06-22T12:25:28;29.60;58.20
51661;DHT22;37741;49.748;8.490;2023-06-22T12:27:54;29.60;58.20
51661;DHT22;37741;49.748;8.490;2023-06-22T12:30:20;29.70;58.10
51661;DHT22;37741;49.748;8.490;2023-06-22T12:32:46;29.80;57.60
51661;DHT22;37741;49.748;8.490;2023-06-22T12:35:11;29.90;57.40
51661;DHT22;37741;49.748;8.490;2023-06-22T12:37:41;29.90;57.10
51661;DHT22;37741;49.748;8.490;2023-06-22T12:40:08;30.00;57.00
51661;DHT22;37741;49.748;8.490;2023-06-22T12:42:33;30.10;57.40
51661;DHT22;37741;49.748;8.490;2023-06-22T12:44:59;30.20;56.50
51661;DHT22;37741;49.748;8.490;2023-06-22T12:47:24;30.20;56.30
51661;DHT22;37741;49.748;8.490;2023-06-22T12:49:50;30.30;56.20
51661;DHT22;37741;49.748;8.490;2023-06-22T12:52:16;30.40;56.30
51661;DHT22;37741;49.748;8.490;2023-06-22T12:54:41;30.50;56.30
51661;DHT22;37741;49.748;8.490;2023-06-22T12:57:07;30.50;56.00
51661;DHT22;37741;49.748;8.490;2023-06-22T12:59:33;30.60;56.10
51661;DHT22;37741;49.748;8.490;2023-06-22T13:01:58;30.60;55.90
51661;DHT22;37741;49.748;8.490;2023-06-22T13:04:24;30.70;55.60
51661;DHT22;37741;49.748;8.490;2023-06-22T13:06:49;30.80;55.50
51661;DHT22;37741;49.748;8.490;2023-06-22T13:09:17;30.80;55.20
51661;DHT22;37741;49.748;8.490;2023-06-22T13:11:43;30.80;55.00
51661;DHT22;37741;49.748;8.490;2023-06-22T13:14:08;31.00;55.10
51661;DHT22;37741;49.748;8.490;2023-06-22T13:16:34;31.00;55.00
51661;DHT22;37741;49.748;8.490;2023-06-22T13:19:02;31.10;54.60
51661;DHT22;37741;49.748;8.490;2023-06-22T13:21:28;31.20;53.80
51661;DHT22;37741;49.748;8.490;2023-06-22T13:23:53;31.30;54.00
51661;DHT22;37741;49.748;8.490;2023-06-22T13:26:20;31.30;53.90
51661;DHT22;37741;49.748;8.490;2023-06-22T13:28:45;31.40;53.60
51661;DHT22;37741;49.748;8.490;2023-06-22T13:31:11;31.50;53.50
51661;DHT22;37741;49.748;8.490;2023-06-22T13:33:38;31.50;53.40
51661;DHT22;37741;49.748;8.490;2023-06-22T13:36:03;31.60;53.10
51661;DHT22;37741;49.748;8.490;2023-06-22T13:38:31;31.60;53.00
51661;DHT22;37741;49.748;8.490;2023-06-22T13:40:57;31.70;53.10
51661;DHT22;37741;49.748;8.490;2023-06-22T13:43:26;31.70;52.80
51661;DHT22;37741;49.748;8.490;2023-06-22T13:45:52;31.80;52.90
51661;DHT22;37741;49.748;8.490;2023-06-22T13:48:17;31.90;52.80
51661;DHT22;37741;49.748;8.490;2023-06-22T13:50:43;32.00;52.80
51661;DHT22;37741;49.748;8.490;2023-06-22T13:53:09;32.00;52.50
51661;DHT22;37741;49.748;8.490;2023-06-22T13:55:35;32.00;52.30
51661;DHT22;37741;49.748;8.490;2023-06-22T13:58:00;32.10;52.20
51661;DHT22;37741;49.748;8.490;2023-06-22T14:00:26;32.20;52.10
51661;DHT22;37741;49.748;8.490;2023-06-22T14:02:53;32.20;51.90
51661;DHT22;37741;49.748;8.490;2023-06-22T14:05:19;32.30;51.80
51661;DHT22;37741;49.748;8.490;2023-06-22T14:07:45;32.30;51.70
51661;DHT22;37741;49.748;8.490;2023-06-22T14:10:11;32.40;51.60
51661;DHT22;37741;49.748;8.490;2023-06-22T14:12:36;32.50;51.50
51661;DHT22;37741;49.748;8.490;2023-06-22T14:15:02;32.50;51.40
51661;DHT22;37741;49.748;8.490;2023-06-22T14:17:28;32.60;51.40
51661;DHT22;37741;49.748;8.490;2023-06-22T14:19:54;32.60;50.90
51661;DHT22;37741;49.748;8.490;2023-06-22T14:22:20;32.70;51.20
51661;DHT22;37741;49.748;8.490;2023-06-22T14:24:47;32.70;50.90
51661;DHT22;37741;49.748;8.490;2023-06-22T14:27:12;32.80;50.80
51661;DHT22;37741;49.748;8.490;2023-06-22T14:29:38;32.80;50.40
51661;DHT22;37741;49.748;8.490;2023-06-22T14:32:04;32.90;50.30
51661;DHT22;37741;49.748;8.490;2023-06-22T14:34:32;33.00;50.20
51661;DHT22;37741;49.748;8.490;2023-06-22T14:36:57;33.10;50.00
51661;DHT22;37741;49.748;8.490;2023-06-22T14:39:23;33.10;49.60
51661;DHT22;37741;49.748;8.490;2023-06-22T14:41:48;33.20;49.50
51661;DHT22;37741;49.748;8.490;2023-06-22T14:44:15;33.30;48.90
51661;DHT22;37741;49.748;8.490;2023-06-22T14:46:40;33.40;49.60
51661;DHT22;37741;49.748;8.490;2023-06-22T14:49:06;33.50;49.40
51661;DHT22;37741;49.748;8.490;2023-06-22T14:51:31;33.50;49.40
51661;DHT22;37741;49.748;8.490;2023-06-22T14:53:57;33.50;49.00
51661;DHT22;37741;49.748;8.490;2023-06-22T14:56:23;33.60;48.40
51661;DHT22;37741;49.748;8.490;2023-06-22T14:58:48;33.70;48.90
51661;DHT22;37741;49.748;8.490;2023-06-22T15:01:16;33.70;49.10
51661;DHT22;37741;49.748;8.490;2023-06-22T15:03:42;33.80;48.60
51661;DHT22;37741;49.748;8.490;2023-06-22T15:06:08;33.90;48.90
51661;DHT22;37741;49.748;8.490;2023-06-22T15:08:34;34.00;49.10
51661;DHT22;37741;49.748;8.490;2023-06-22T15:10:59;34.00;48.30
51661;DHT22;37741;49.748;8.490;2023-06-22T15:13:27;34.10;48.70
51661;DHT22;37741;49.748;8.490;2023-06-22T15:15:53;34.30;48.60
51661;DHT22;37741;49.748;8.490;2023-06-22T15:18:18;34.30;48.40
51661;DHT22;37741;49.748;8.490;2023-06-22T15:20:44;34.40;48.10
51661;DHT22;37741;49.748;8.490;2023-06-22T15:23:11;34.50;48.30
51661;DHT22;37741;49.748;8.490;2023-06-22T15:25:37;34.50;48.30
51661;DHT22;37741;49.748;8.490;2023-06-22T15:28:03;34.60;48.00